Terminal Aerodrome Forecast
Issued by NWS Duluth, MN

Home | Current Version | Previous Version | Text Only | Print | Product List | Glossary On
Versions: 1 2 3 4 5 6 7 8 9 10 11 12 13 14 15 16 17 18 19 20 21
786
FTUS43 KDLH 181137
TAFINL
TAF
KINL 181137Z 1812/1912 12004KT P6SM VCSH SCT035
     FM181400 12004KT 3SM -SN BKN025
     FM181500 08005KT 1SM -SN OVC016
     FM182100 04009KT 4SM -SN BKN022
     FM182300 03008KT P6SM BKN040=

USA.gov is the U.S. government's official web portal to all federal, state and local government web resources and services.